KJRB/JRB METAR and TAF weather

Enter ICAO airport designator
Station Type Date Time Source
KJRB METAR 2019/06/26 19:56 UTC NOAA

KJRB 261956Z AUTO 21005G28KT 10SM CLR 31/16 A2999 RMK AO2 PK WND 30028/1949 SLP155 T03110161


Station Type Date Time Source
KJRB Decoded METAR 2019/06/26 19:56 UTC NOAA

Station name not available
Jun 26, 2019 - 03:56 PM EDT / 2019.06.26 1956 UTC
Wind: from the SSW (210 degrees) at 6 MPH (5 KT) gusting to 32 MPH (28 KT):0
Visibility: 10 mile(s):0
Sky conditions: clear
Temperature: 88.0 F (31.1 C)
Dew Point: 61.0 F (16.1 C)
Relative Humidity: 40%
Pressure (altimeter): 29.99 in. Hg (1015 hPa)
ob: KJRB 261956Z AUTO 21005G28KT 10SM CLR 31/16 A2999 RMK AO2 PK WND 30028/1949 SLP155 T03110161
cycle: 20

Station Type Date Time Source
KJRB TAF UTC NOAA

Error!

Example: see airport list